sensor_id;sensor_type;location;lat;lon;timestamp;pressure;altitude;pressure_sealevel;temperature;humidity
73981;BME280;62348;51.412;5.436;2022-11-15T00:01:41;100698.66;;;6.81;96.08
73981;BME280;62348;51.412;5.436;2022-11-15T00:04:06;100696.56;;;6.83;95.95
73981;BME280;62348;51.412;5.436;2022-11-15T00:06:32;100696.06;;;6.87;96.22
73981;BME280;62348;51.412;5.436;2022-11-15T00:08:58;100691.28;;;6.89;96.14
73981;BME280;62348;51.412;5.436;2022-11-15T00:11:24;100696.16;;;6.92;96.43
73981;BME280;62348;51.412;5.436;2022-11-15T00:13:49;100690.56;;;6.93;96.54
73981;BME280;62348;51.412;5.436;2022-11-15T00:16:15;100691.94;;;6.96;96.20
73981;BME280;62348;51.412;5.436;2022-11-15T00:18:40;100701.16;;;7.00;96.28
73981;BME280;62348;51.412;5.436;2022-11-15T00:21:09;100702.00;;;7.00;96.28
73981;BME280;62348;51.412;5.436;2022-11-15T00:23:35;100699.88;;;7.02;96.21
73981;BME280;62348;51.412;5.436;2022-11-15T00:26:01;100692.16;;;7.06;96.37
73981;BME280;62348;51.412;5.436;2022-11-15T00:28:26;100692.94;;;7.07;96.08
73981;BME280;62348;51.412;5.436;2022-11-15T00:30:52;100689.78;;;7.10;96.33
73981;BME280;62348;51.412;5.436;2022-11-15T00:33:18;100696.78;;;7.11;96.25
73981;BME280;62348;51.412;5.436;2022-11-15T00:35:43;100689.06;;;7.14;96.16
73981;BME280;62348;51.412;5.436;2022-11-15T00:38:09;100690.69;;;7.15;96.32
73981;BME280;62348;51.412;5.436;2022-11-15T00:40:34;100688.59;;;7.17;96.28
73981;BME280;62348;51.412;5.436;2022-11-15T00:43:00;100689.97;;;7.20;96.48
73981;BME280;62348;51.412;5.436;2022-11-15T00:45:25;100689.72;;;7.21;96.04
73981;BME280;62348;51.412;5.436;2022-11-15T00:47:51;100684.91;;;7.23;96.51
73981;BME280;62348;51.412;5.436;2022-11-15T00:50:17;100683.84;;;7.24;96.59
73981;BME280;62348;51.412;5.436;2022-11-15T00:52:43;100680.91;;;7.26;96.66
73981;BME280;62348;51.412;5.436;2022-11-15T00:55:16;100672.38;;;7.29;96.94
73981;BME280;62348;51.412;5.436;2022-11-15T00:57:41;100674.00;;;7.30;97.00
73981;BME280;62348;51.412;5.436;2022-11-15T01:00:08;100681.34;;;7.35;97.18
73981;BME280;62348;51.412;5.436;2022-11-15T01:02:34;100679.22;;;7.37;97.55
73981;BME280;62348;51.412;5.436;2022-11-15T01:04:59;100682.16;;;7.35;97.08
73981;BME280;62348;51.412;5.436;2022-11-15T01:07:25;100674.44;;;7.39;97.47
73981;BME280;62348;51.412;5.436;2022-11-15T01:09:50;100677.44;;;7.42;97.76
73981;BME280;62348;51.412;5.436;2022-11-15T01:12:15;100669.94;;;7.45;97.95
73981;BME280;62348;51.412;5.436;2022-11-15T01:14:41;100670.28;;;7.48;98.06
73981;BME280;62348;51.412;5.436;2022-11-15T01:17:06;100670.84;;;7.50;98.04
73981;BME280;62348;51.412;5.436;2022-11-15T01:19:32;100665.78;;;7.54;98.20
73981;BME280;62348;51.412;5.436;2022-11-15T01:21:57;100654.78;;;7.55;98.48
73981;BME280;62348;51.412;5.436;2022-11-15T01:24:22;100656.72;;;7.60;98.78
73981;BME280;62348;51.412;5.436;2022-11-15T01:26:48;100660.00;;;7.62;99.11
73981;BME280;62348;51.412;5.436;2022-11-15T01:29:13;100661.69;;;7.68;98.99
73981;BME280;62348;51.412;5.436;2022-11-15T01:31:39;100656.41;;;7.73;99.60
73981;BME280;62348;51.412;5.436;2022-11-15T01:34:04;100654.34;;;7.80;99.94
73981;BME280;62348;51.412;5.436;2022-11-15T01:36:30;100653.19;;;7.93;100.00
73981;BME280;62348;51.412;5.436;2022-11-15T01:38:58;100652.19;;;7.99;100.00
73981;BME280;62348;51.412;5.436;2022-11-15T01:41:27;100645.72;;;8.00;100.00
73981;BME280;62348;51.412;5.436;2022-11-15T01:43:55;100657.91;;;8.03;100.00
73981;BME280;62348;51.412;5.436;2022-11-15T01:48:46;100644.00;;;8.11;100.00
73981;BME280;62348;51.412;5.436;2022-11-15T01:51:15;100654.03;;;8.16;100.00
73981;BME280;62348;51.412;5.436;2022-11-15T01:53:44;100643.59;;;8.19;100.00
73981;BME280;62348;51.412;5.436;2022-11-15T01:56:13;100646.00;;;8.21;100.00
73981;BME280;62348;51.412;5.436;2022-11-15T01:58:43;100645.03;;;8.27;100.00
73981;BME280;62348;51.412;5.436;2022-11-15T02:01:11;100639.13;;;8.30;100.00
73981;BME280;62348;51.412;5.436;2022-11-15T02:03:58;100637.56;;;8.34;100.00
73981;BME280;62348;51.412;5.436;2022-11-15T02:06:25;100637.06;;;8.37;100.00
73981;BME280;62348;51.412;5.436;2022-11-15T02:08:50;100632.34;;;8.45;100.00
73981;BME280;62348;51.412;5.436;2022-11-15T02:11:16;100631.56;;;8.49;100.00
73981;BME280;62348;51.412;5.436;2022-11-15T02:13:42;100632.69;;;8.53;100.00
73981;BME280;62348;51.412;5.436;2022-11-15T02:16:30;100636.72;;;8.51;100.00
73981;BME280;62348;51.412;5.436;2022-11-15T02:25:03;100630.88;;;8.59;100.00
73981;BME280;62348;51.412;5.436;2022-11-15T02:38:12;100615.94;;;8.73;100.00
73981;BME280;62348;51.412;5.436;2022-11-15T02:43:33;100617.06;;;8.77;100.00
73981;BME280;62348;51.412;5.436;2022-11-15T02:46:45;100613.88;;;8.81;100.00
73981;BME280;62348;51.412;5.436;2022-11-15T02:49:33;100610.66;;;8.84;100.00
73981;BME280;62348;51.412;5.436;2022-11-15T02:52:00;100614.72;;;8.86;100.00
73981;BME280;62348;51.412;5.436;2022-11-15T02:54:30;100610.41;;;8.85;100.00
73981;BME280;62348;51.412;5.436;2022-11-15T02:57:02;100609.34;;;8.86;100.00
73981;BME280;62348;51.412;5.436;2022-11-15T02:59:54;100596.41;;;8.88;100.00
73981;BME280;62348;51.412;5.436;2022-11-15T03:05:37;100594.53;;;8.89;100.00
73981;BME280;62348;51.412;5.436;2022-11-15T03:08:11;100591.59;;;8.90;100.00
73981;BME280;62348;51.412;5.436;2022-11-15T03:16:09;100584.41;;;9.01;100.00
73981;BME280;62348;51.412;5.436;2022-11-15T03:18:42;100581.19;;;9.04;100.00
73981;BME280;62348;51.412;5.436;2022-11-15T03:21:09;100585.81;;;9.09;100.00
73981;BME280;62348;51.412;5.436;2022-11-15T03:23:38;100592.25;;;9.08;100.00
73981;BME280;62348;51.412;5.436;2022-11-15T03:26:07;100593.06;;;9.08;100.00
73981;BME280;62348;51.412;5.436;2022-11-15T03:28:40;100587.97;;;9.12;100.00
73981;BME280;62348;51.412;5.436;2022-11-15T03:31:08;100593.38;;;9.12;100.00
73981;BME280;62348;51.412;5.436;2022-11-15T03:33:55;100586.38;;;9.11;100.00
73981;BME280;62348;51.412;5.436;2022-11-15T03:36:23;100598.53;;;9.13;100.00
73981;BME280;62348;51.412;5.436;2022-11-15T03:38:56;100594.47;;;9.11;100.00
73981;BME280;62348;51.412;5.436;2022-11-15T03:41:30;100594.75;;;9.14;100.00
73981;BME280;62348;51.412;5.436;2022-11-15T03:44:28;100599.06;;;9.15;100.00
73981;BME280;62348;51.412;5.436;2022-11-15T03:47:03;100602.31;;;9.17;100.00
73981;BME280;62348;51.412;5.436;2022-11-15T03:49:36;100603.41;;;9.16;100.00
73981;BME280;62348;51.412;5.436;2022-11-15T03:52:04;100599.38;;;9.19;100.00
73981;BME280;62348;51.412;5.436;2022-11-15T03:54:29;100598.00;;;9.16;100.00
73981;BME280;62348;51.412;5.436;2022-11-15T03:56:55;100595.56;;;9.15;100.00
73981;BME280;62348;51.412;5.436;2022-11-15T03:59:20;100590.22;;;9.20;100.00
73981;BME280;62348;51.412;5.436;2022-11-15T04:01:46;100598.00;;;9.16;100.00
73981;BME280;62348;51.412;5.436;2022-11-15T04:04:11;100590.47;;;9.18;100.00
73981;BME280;62348;51.412;5.436;2022-11-15T04:06:36;100586.69;;;9.19;100.00
73981;BME280;62348;51.412;5.436;2022-11-15T04:09:02;100588.59;;;9.19;100.00
73981;BME280;62348;51.412;5.436;2022-11-15T04:11:27;100598.56;;;9.18;100.00
73981;BME280;62348;51.412;5.436;2022-11-15T04:13:53;100583.75;;;9.21;100.00
73981;BME280;62348;51.412;5.436;2022-11-15T04:16:18;100583.19;;;9.19;100.00
73981;BME280;62348;51.412;5.436;2022-11-15T04:18:44;100584.84;;;9.20;100.00
73981;BME280;62348;51.412;5.436;2022-11-15T04:21:09;100585.09;;;9.18;100.00
73981;BME280;62348;51.412;5.436;2022-11-15T04:23:53;100583.75;;;9.21;100.00
73981;BME280;62348;51.412;5.436;2022-11-15T04:26:50;100591.84;;;9.21;100.00
73981;BME280;62348;51.412;5.436;2022-11-15T04:29:16;100581.59;;;9.23;100.00
73981;BME280;62348;51.412;5.436;2022-11-15T04:32:01;100580.00;;;9.22;100.00
73981;BME280;62348;51.412;5.436;2022-11-15T04:34:26;100592.38;;;9.23;100.00
73981;BME280;62348;51.412;5.436;2022-11-15T04:36:52;100590.22;;;9.20;100.00
73981;BME280;62348;51.412;5.436;2022-11-15T04:39:35;100596.19;;;9.22;100.00
73981;BME280;62348;51.412;5.436;2022-11-15T04:42:01;100593.47;;;9.22;100.00
73981;BME280;62348;51.412;5.436;2022-11-15T04:44:26;100594.84;;;9.25;100.00
73981;BME280;62348;51.412;5.436;2022-11-15T04:46:52;100594.03;;;9.24;100.00
73981;BME280;62348;51.412;5.436;2022-11-15T04:49:17;100595.63;;;9.25;100.00
73981;BME280;62348;51.412;5.436;2022-11-15T04:51:42;100593.19;;;9.24;100.00
73981;BME280;62348;51.412;5.436;2022-11-15T04:54:08;100590.00;;;9.27;100.00
73981;BME280;62348;51.412;5.436;2022-11-15T04:56:33;100585.41;;;9.27;100.00
73981;BME280;62348;51.412;5.436;2022-11-15T04:58:58;100582.19;;;9.30;100.00
73981;BME280;62348;51.412;5.436;2022-11-15T05:01:24;100589.22;;;9.31;100.00
73981;BME280;62348;51.412;5.436;2022-11-15T05:03:49;100582.25;;;9.35;100.00
73981;BME280;62348;51.412;5.436;2022-11-15T05:06:33;100591.41;;;9.34;100.00
73981;BME280;62348;51.412;5.436;2022-11-15T05:08:58;100578.72;;;9.35;100.00
73981;BME280;62348;51.412;5.436;2022-11-15T05:11:24;100578.19;;;9.38;100.00
73981;BME280;62348;51.412;5.436;2022-11-15T05:13:50;100590.06;;;9.37;100.00
73981;BME280;62348;51.412;5.436;2022-11-15T05:16:15;100589.81;;;9.38;100.00
73981;BME280;62348;51.412;5.436;2022-11-15T05:18:41;100584.41;;;9.38;100.00
73981;BME280;62348;51.412;5.436;2022-11-15T05:21:09;100587.09;;;9.38;100.00
73981;BME280;62348;51.412;5.436;2022-11-15T05:23:35;100578.75;;;9.40;100.00
73981;BME280;62348;51.412;5.436;2022-11-15T05:26:01;100578.50;;;9.42;100.00
73981;BME280;62348;51.412;5.436;2022-11-15T05:28:27;100565.81;;;9.42;100.00
73981;BME280;62348;51.412;5.436;2022-11-15T05:30:52;100563.13;;;9.42;100.00
73981;BME280;62348;51.412;5.436;2022-11-15T05:33:18;100569.31;;;9.43;100.00
73981;BME280;62348;51.412;5.436;2022-11-15T05:35:48;100570.41;;;9.42;100.00
73981;BME280;62348;51.412;5.436;2022-11-15T05:38:15;100568.50;;;9.42;100.00
73981;BME280;62348;51.412;5.436;2022-11-15T05:40:41;100560.41;;;9.42;100.00
73981;BME280;62348;51.412;5.436;2022-11-15T05:43:07;100565.00;;;9.42;100.00
73981;BME280;62348;51.412;5.436;2022-11-15T05:45:33;100571.47;;;9.41;100.00
73981;BME280;62348;51.412;5.436;2022-11-15T05:48:00;100578.50;;;9.42;100.00
73981;BME280;62348;51.412;5.436;2022-11-15T05:50:29;100578.50;;;9.42;100.00
73981;BME280;62348;51.412;5.436;2022-11-15T05:52:54;100578.50;;;9.42;100.00
73981;BME280;62348;51.412;5.436;2022-11-15T05:55:20;100583.66;;;9.43;100.00
73981;BME280;62348;51.412;5.436;2022-11-15T05:57:46;100590.41;;;9.46;100.00
73981;BME280;62348;51.412;5.436;2022-11-15T06:00:12;100584.75;;;9.47;100.00
73981;BME280;62348;51.412;5.436;2022-11-15T06:02:37;100586.09;;;9.50;100.00
73981;BME280;62348;51.412;5.436;2022-11-15T06:05:03;100585.31;;;9.49;100.00
73981;BME280;62348;51.412;5.436;2022-11-15T06:07:29;100589.34;;;9.52;100.00
73981;BME280;62348;51.412;5.436;2022-11-15T06:09:57;100593.69;;;9.53;100.00
73981;BME280;62348;51.412;5.436;2022-11-15T06:12:22;100584.50;;;9.54;100.00
73981;BME280;62348;51.412;5.436;2022-11-15T06:14:48;100589.91;;;9.54;100.00
73981;BME280;62348;51.412;5.436;2022-11-15T06:17:13;100592.88;;;9.52;100.00
73981;BME280;62348;51.412;5.436;2022-11-15T06:19:38;100591.81;;;9.53;100.00
73981;BME280;62348;51.412;5.436;2022-11-15T06:22:04;100597.75;;;9.55;100.00
73981;BME280;62348;51.412;5.436;2022-11-15T06:24:29;100597.19;;;9.53;100.00
73981;BME280;62348;51.412;5.436;2022-11-15T06:26:55;100598.28;;;9.52;100.00
73981;BME280;62348;51.412;5.436;2022-11-15T06:29:20;100598.28;;;9.52;100.00
73981;BME280;62348;51.412;5.436;2022-11-15T06:31:45;100599.34;;;9.51;100.00
73981;BME280;62348;51.412;5.436;2022-11-15T06:34:11;100599.59;;;9.50;100.00
73981;BME280;62348;51.412;5.436;2022-11-15T06:36:36;100598.25;;;9.47;100.00
73981;BME280;62348;51.412;5.436;2022-11-15T06:39:03;100602.00;;;9.46;100.00
73981;BME280;62348;51.412;5.436;2022-11-15T06:41:29;100602.00;;;9.46;100.00
73981;BME280;62348;51.412;5.436;2022-11-15T06:43:55;100599.31;;;9.46;100.00
73981;BME280;62348;51.412;5.436;2022-11-15T06:46:20;100609.28;;;9.46;100.00
73981;BME280;62348;51.412;5.436;2022-11-15T06:48:45;100612.50;;;9.43;100.00
73981;BME280;62348;51.412;5.436;2022-11-15T06:51:11;100616.84;;;9.44;100.00
73981;BME280;62348;51.412;5.436;2022-11-15T06:53:36;100617.09;;;9.42;100.00
73981;BME280;62348;51.412;5.436;2022-11-15T06:56:04;100621.94;;;9.40;100.00
73981;BME280;62348;51.412;5.436;2022-11-15T06:58:30;100622.19;;;9.38;100.00
73981;BME280;62348;51.412;5.436;2022-11-15T07:01:00;100623.28;;;9.37;100.00
73981;BME280;62348;51.412;5.436;2022-11-15T07:03:26;100621.38;;;9.38;100.00
73981;BME280;62348;51.412;5.436;2022-11-15T07:05:53;100624.88;;;9.38;100.00
73981;BME280;62348;51.412;5.436;2022-11-15T07:08:20;100626.78;;;9.38;100.00
73981;BME280;62348;51.412;5.436;2022-11-15T07:10:45;100630.53;;;9.37;100.00
73981;BME280;62348;51.412;5.436;2022-11-15T07:13:10;100628.91;;;9.36;100.00
73981;BME280;62348;51.412;5.436;2022-11-15T07:15:36;100634.31;;;9.36;100.00
73981;BME280;62348;51.412;5.436;2022-11-15T07:18:02;100635.38;;;9.35;100.00
73981;BME280;62348;51.412;5.436;2022-11-15T07:20:27;100640.78;;;9.35;100.00
73981;BME280;62348;51.412;5.436;2022-11-15T07:23:02;100645.34;;;9.34;100.00
73981;BME280;62348;51.412;5.436;2022-11-15T07:25:28;100641.06;;;9.33;100.00
73981;BME280;62348;51.412;5.436;2022-11-15T07:27:55;100640.22;;;9.33;100.00
73981;BME280;62348;51.412;5.436;2022-11-15T07:30:20;100642.91;;;9.33;100.00
73981;BME280;62348;51.412;5.436;2022-11-15T07:32:45;100645.63;;;9.33;100.00
73981;BME280;62348;51.412;5.436;2022-11-15T07:35:12;100650.47;;;9.31;100.00
73981;BME280;62348;51.412;5.436;2022-11-15T07:37:37;100650.47;;;9.31;100.00
73981;BME280;62348;51.412;5.436;2022-11-15T07:40:03;100644.25;;;9.30;100.00
73981;BME280;62348;51.412;5.436;2022-11-15T07:42:31;100642.34;;;9.31;100.00
73981;BME280;62348;51.412;5.436;2022-11-15T07:45:15;100628.06;;;9.30;100.00
73981;BME280;62348;51.412;5.436;2022-11-15T07:47:40;100626.44;;;9.29;100.00
73981;BME280;62348;51.412;5.436;2022-11-15T07:50:06;100625.63;;;9.29;100.00
73981;BME280;62348;51.412;5.436;2022-11-15T07:52:31;100626.72;;;9.28;99.83
73981;BME280;62348;51.412;5.436;2022-11-15T07:54:56;100630.22;;;9.28;99.80
73981;BME280;62348;51.412;5.436;2022-11-15T07:57:22;100629.13;;;9.29;99.86
73981;BME280;62348;51.412;5.436;2022-11-15T07:59:47;100635.34;;;9.30;99.81
73981;BME280;62348;51.412;5.436;2022-11-15T08:02:13;100638.31;;;9.28;99.78
73981;BME280;62348;51.412;5.436;2022-11-15T08:04:38;100635.34;;;9.30;99.77
73981;BME280;62348;51.412;5.436;2022-11-15T08:07:03;100642.59;;;9.29;99.50
73981;BME280;62348;51.412;5.436;2022-11-15T08:09:29;100642.59;;;9.29;99.41
73981;BME280;62348;51.412;5.436;2022-11-15T08:11:54;100647.75;;;9.31;99.62
73981;BME280;62348;51.412;5.436;2022-11-15T08:14:19;100649.66;;;9.30;99.43
73981;BME280;62348;51.412;5.436;2022-11-15T08:16:47;100649.91;;;9.29;99.15
73981;BME280;62348;51.412;5.436;2022-11-15T08:19:12;100647.75;;;9.31;99.34
73981;BME280;62348;51.412;5.436;2022-11-15T08:21:37;100642.91;;;9.28;99.18
73981;BME280;62348;51.412;5.436;2022-11-15T08:24:03;100647.75;;;9.31;99.21
73981;BME280;62348;51.412;5.436;2022-11-15T08:26:28;100641.56;;;9.30;98.93
73981;BME280;62348;51.412;5.436;2022-11-15T08:28:55;100636.97;;;9.31;98.97
73981;BME280;62348;51.412;5.436;2022-11-15T08:31:20;100639.16;;;9.34;99.21
73981;BME280;62348;51.412;5.436;2022-11-15T08:33:46;100632.69;;;9.35;98.89
73981;BME280;62348;51.412;5.436;2022-11-15T08:36:16;100625.72;;;9.39;98.66
73981;BME280;62348;51.412;5.436;2022-11-15T08:38:41;100630.84;;;9.41;98.40
73981;BME280;62348;51.412;5.436;2022-11-15T08:41:13;100627.06;;;9.42;98.09
73981;BME280;62348;51.412;5.436;2022-11-15T08:43:38;100621.97;;;9.45;98.47
73981;BME280;62348;51.412;5.436;2022-11-15T08:46:04;100617.94;;;9.48;98.37
73981;BME280;62348;51.412;5.436;2022-11-15T08:48:29;100610.13;;;9.51;98.17
73981;BME280;62348;51.412;5.436;2022-11-15T08:50:56;100608.00;;;9.53;98.39
73981;BME280;62348;51.412;5.436;2022-11-15T08:53:21;100603.16;;;9.55;98.00
73981;BME280;62348;51.412;5.436;2022-11-15T08:55:47;100605.34;;;9.58;97.73
73981;BME280;62348;51.412;5.436;2022-11-15T08:58:12;100601.56;;;9.60;97.66
73981;BME280;62348;51.412;5.436;2022-11-15T09:00:38;100607.50;;;9.62;97.52
73981;BME280;62348;51.412;5.436;2022-11-15T09:03:04;100605.38;;;9.64;97.29
73981;BME280;62348;51.412;5.436;2022-11-15T09:05:31;100597.00;;;9.65;96.84
73981;BME280;62348;51.412;5.436;2022-11-15T09:07:56;100596.78;;;9.72;96.60
73981;BME280;62348;51.412;5.436;2022-11-15T09:10:22;100584.34;;;9.71;96.10
73981;BME280;62348;51.412;5.436;2022-11-15T09:12:47;100585.19;;;9.76;95.46
73981;BME280;62348;51.412;5.436;2022-11-15T09:15:14;100581.19;;;9.84;95.25
73981;BME280;62348;51.412;5.436;2022-11-15T09:17:40;100578.50;;;9.89;94.81
73981;BME280;62348;51.412;5.436;2022-11-15T09:20:06;100566.13;;;9.99;94.63
73981;BME280;62348;51.412;5.436;2022-11-15T09:22:31;100563.47;;;10.04;94.44
73981;BME280;62348;51.412;5.436;2022-11-15T09:24:57;100566.19;;;10.14;93.40
73981;BME280;62348;51.412;5.436;2022-11-15T09:27:22;100567.28;;;10.18;92.55
73981;BME280;62348;51.412;5.436;2022-11-15T09:29:48;100570.28;;;10.22;92.30
73981;BME280;62348;51.412;5.436;2022-11-15T09:32:13;100565.16;;;10.25;90.64
73981;BME280;62348;51.412;5.436;2022-11-15T09:34:38;100555.16;;;10.26;90.70
73981;BME280;62348;51.412;5.436;2022-11-15T09:37:04;100559.50;;;10.32;90.25
73981;BME280;62348;51.412;5.436;2022-11-15T09:39:30;100558.44;;;10.33;88.80
73981;BME280;62348;51.412;5.436;2022-11-15T09:47:36;100555.69;;;10.23;87.44
73981;BME280;62348;51.412;5.436;2022-11-15T09:50:10;100565.38;;;10.19;86.12
73981;BME280;62348;51.412;5.436;2022-11-15T09:52:37;100565.38;;;10.19;84.91
73981;BME280;62348;51.412;5.436;2022-11-15T09:55:05;100556.72;;;10.16;83.50
73981;BME280;62348;51.412;5.436;2022-11-15T09:57:37;100544.31;;;10.15;85.61
73981;BME280;62348;51.412;5.436;2022-11-15T10:00:08;100551.06;;;10.18;84.30
73981;BME280;62348;51.412;5.436;2022-11-15T10:05:20;100553.53;;;10.20;83.14
73981;BME280;62348;51.412;5.436;2022-11-15T10:10:46;100550.56;;;10.21;83.36
73981;BME280;62348;51.412;5.436;2022-11-15T10:13:25;100549.75;;;10.21;84.02
73981;BME280;62348;51.412;5.436;2022-11-15T10:15:53;100548.13;;;10.20;83.94
73981;BME280;62348;51.412;5.436;2022-11-15T10:18:36;100546.22;;;10.20;84.22
73981;BME280;62348;51.412;5.436;2022-11-15T10:21:17;100545.97;;;10.22;83.43
73981;BME280;62348;51.412;5.436;2022-11-15T10:23:44;100548.91;;;10.20;82.25
73981;BME280;62348;51.412;5.436;2022-11-15T10:26:13;100534.31;;;10.16;81.61
73981;BME280;62348;51.412;5.436;2022-11-15T10:28:40;100536.22;;;10.15;80.84
73981;BME280;62348;51.412;5.436;2022-11-15T10:31:24;100534.84;;;10.13;83.14
73981;BME280;62348;51.412;5.436;2022-11-15T10:33:50;100538.09;;;10.10;81.69
73981;BME280;62348;51.412;5.436;2022-11-15T10:36:19;100523.22;;;10.07;81.86
73981;BME280;62348;51.412;5.436;2022-11-15T10:41:36;100528.34;;;10.04;81.52
73981;BME280;62348;51.412;5.436;2022-11-15T10:46:32;100500.53;;;10.08;82.43
73981;BME280;62348;51.412;5.436;2022-11-15T10:51:47;100494.88;;;10.15;81.84
73981;BME280;62348;51.412;5.436;2022-11-15T10:54:15;100487.59;;;10.21;81.53
73981;BME280;62348;51.412;5.436;2022-11-15T10:56:49;100492.75;;;10.27;81.69
73981;BME280;62348;51.412;5.436;2022-11-15T10:59:19;100485.97;;;10.30;81.77
73981;BME280;62348;51.412;5.436;2022-11-15T11:01:48;100484.69;;;10.32;80.63
73981;BME280;62348;51.412;5.436;2022-11-15T11:04:14;100477.91;;;10.35;79.11
73981;BME280;62348;51.412;5.436;2022-11-15T11:07:08;100486.84;;;10.41;80.81
73981;BME280;62348;51.412;5.436;2022-11-15T11:09:44;100486.59;;;10.42;80.88
73981;BME280;62348;51.412;5.436;2022-11-15T11:12:11;100480.09;;;10.48;80.77
73981;BME280;62348;51.412;5.436;2022-11-15T11:14:38;100469.00;;;10.45;79.57
73981;BME280;62348;51.412;5.436;2022-11-15T11:20:50;100456.59;;;10.44;79.26
73981;BME280;62348;51.412;5.436;2022-11-15T11:31:48;100424.41;;;10.52;78.81
73981;BME280;62348;51.412;5.436;2022-11-15T11:37:36;100415.22;;;10.64;79.69
73981;BME280;62348;51.412;5.436;2022-11-15T11:40:21;100416.59;;;10.66;79.16
73981;BME280;62348;51.412;5.436;2022-11-15T11:45:29;100403.31;;;10.75;77.90
73981;BME280;62348;51.412;5.436;2022-11-15T11:48:26;100398.97;;;10.79;78.39
73981;BME280;62348;51.412;5.436;2022-11-15T11:51:04;100389.78;;;10.85;77.73
73981;BME280;62348;51.412;5.436;2022-11-15T11:53:37;100375.16;;;10.86;77.64
73981;BME280;62348;51.412;5.436;2022-11-15T11:56:16;100387.34;;;10.89;76.52
73981;BME280;62348;51.412;5.436;2022-11-15T11:58:46;100375.16;;;10.86;77.00
73981;BME280;62348;51.412;5.436;2022-11-15T12:01:37;100376.53;;;10.89;79.01
73981;BME280;62348;51.412;5.436;2022-11-15T12:04:29;100363.81;;;10.89;76.15
73981;BME280;62348;51.412;5.436;2022-11-15T12:07:08;100353.00;;;10.89;76.83
73981;BME280;62348;51.412;5.436;2022-11-15T12:09:43;100351.34;;;10.93;77.80
73981;BME280;62348;51.412;5.436;2022-11-15T12:17:46;100345.63;;;11.00;74.11
73981;BME280;62348;51.412;5.436;2022-11-15T12:20:18;100352.69;;;11.01;74.51
73981;BME280;62348;51.412;5.436;2022-11-15T12:23:00;100337.50;;;11.05;72.64
73981;BME280;62348;51.412;5.436;2022-11-15T12:25:32;100339.41;;;11.05;71.17
73981;BME280;62348;51.412;5.436;2022-11-15T12:30:48;100317.78;;;11.05;72.94
73981;BME280;62348;51.412;5.436;2022-11-15T12:33:35;100324.78;;;11.06;73.66
73981;BME280;62348;51.412;5.436;2022-11-15T12:36:10;100316.13;;;11.04;72.97
73981;BME280;62348;51.412;5.436;2022-11-15T12:41:28;100311.84;;;11.03;71.31
73981;BME280;62348;51.412;5.436;2022-11-15T12:43:54;100309.66;;;11.00;71.69
73981;BME280;62348;51.412;5.436;2022-11-15T12:46:25;100305.38;;;10.99;72.68
73981;BME280;62348;51.412;5.436;2022-11-15T13:04:47;100259.66;;;10.97;72.88
73981;BME280;62348;51.412;5.436;2022-11-15T13:07:55;100262.03;;;11.04;73.95
73981;BME280;62348;51.412;5.436;2022-11-15T13:13:07;100255.56;;;11.00;73.37
73981;BME280;62348;51.412;5.436;2022-11-15T13:15:51;100249.34;;;10.99;73.42
73981;BME280;62348;51.412;5.436;2022-11-15T13:18:35;100235.28;;;11.02;73.07
73981;BME280;62348;51.412;5.436;2022-11-15T13:21:03;100239.59;;;11.03;72.32
73981;BME280;62348;51.412;5.436;2022-11-15T13:23:54;100232.59;;;11.02;72.19
73981;BME280;62348;51.412;5.436;2022-11-15T13:26:19;100227.97;;;11.03;73.07
73981;BME280;62348;51.412;5.436;2022-11-15T13:28:48;100227.97;;;11.03;73.24
73981;BME280;62348;51.412;5.436;2022-11-15T13:31:26;100232.28;;;11.04;73.98
73981;BME280;62348;51.412;5.436;2022-11-15T13:33:56;100226.59;;;11.05;72.99
73981;BME280;62348;51.412;5.436;2022-11-15T13:36:25;100216.31;;;11.07;72.83
73981;BME280;62348;51.412;5.436;2022-11-15T13:39:00;100208.19;;;11.07;73.58
73981;BME280;62348;51.412;5.436;2022-11-15T13:41:29;100206.31;;;11.08;73.35
73981;BME280;62348;51.412;5.436;2022-11-15T13:43:56;100199.28;;;11.07;74.20
73981;BME280;62348;51.412;5.436;2022-11-15T13:46:29;100199.28;;;11.07;73.43
73981;BME280;62348;51.412;5.436;2022-11-15T13:49:08;100196.56;;;11.07;74.21
73981;BME280;62348;51.412;5.436;2022-11-15T13:51:37;100190.63;;;11.05;73.49
73981;BME280;62348;51.412;5.436;2022-11-15T13:54:18;100178.19;;;11.04;73.99
73981;BME280;62348;51.412;5.436;2022-11-15T13:57:03;100178.19;;;11.04;73.24
73981;BME280;62348;51.412;5.436;2022-11-15T13:59:33;100171.44;;;11.01;73.66
73981;BME280;62348;51.412;5.436;2022-11-15T14:02:03;100170.63;;;11.01;73.72
73981;BME280;62348;51.412;5.436;2022-11-15T14:04:38;100176.06;;;11.01;74.21
73981;BME280;62348;51.412;5.436;2022-11-15T14:07:04;100159.28;;;10.99;74.13
73981;BME280;62348;51.412;5.436;2022-11-15T14:09:33;100162.28;;;10.97;74.84
73981;BME280;62348;51.412;5.436;2022-11-15T14:12:00;100156.88;;;10.97;74.39
73981;BME280;62348;51.412;5.436;2022-11-15T14:14:29;100146.84;;;10.98;74.30
73981;BME280;62348;51.412;5.436;2022-11-15T14:16:57;100145.50;;;10.95;74.44
73981;BME280;62348;51.412;5.436;2022-11-15T14:22:29;100144.94;;;10.98;74.99
73981;BME280;62348;51.412;5.436;2022-11-15T14:25:19;100131.41;;;10.98;75.13
73981;BME280;62348;51.412;5.436;2022-11-15T14:28:12;100131.41;;;10.98;76.62
73981;BME280;62348;51.412;5.436;2022-11-15T14:30:40;100118.47;;;10.95;74.92
73981;BME280;62348;51.412;5.436;2022-11-15T14:35:55;100118.75;;;10.93;75.09
73981;BME280;62348;51.412;5.436;2022-11-15T14:38:24;100106.00;;;10.94;75.29
73981;BME280;62348;51.412;5.436;2022-11-15T14:40:50;100110.34;;;10.95;75.13
73981;BME280;62348;51.412;5.436;2022-11-15T14:43:16;100103.31;;;10.94;75.33
73981;BME280;62348;51.412;5.436;2022-11-15T14:45:41;100094.94;;;10.96;75.38
73981;BME280;62348;51.412;5.436;2022-11-15T14:48:07;100096.81;;;10.95;75.11